Time;durP1;ratioP1;P1;durP2;ratioP2;P2;SDS_P1;SDS_P2;PMS_P1;PMS_P2;Temp;Humidity;BMP_temperature;BMP_pressure;BME280_temperature;BME280_humidity;BME280_pressure;Samples;Min_cycle;Max_cycle;Signal;HPM_P1;HPM_P2
2023/12/01 00:02:06;;;;;;;23.02;14.52;;;2.10;99.90;;;;;;4915449;29;20123;-67
2023/12/01 00:04:32;;;;;;;21.27;15.05;;;2.10;99.90;;;;;;4915251;29;20183;-67
2023/12/01 00:06:57;;;;;;;20.95;13.90;;;2.10;99.90;;;;;;4915712;29;20130;-67
2023/12/01 00:09:23;;;;;;;21.58;13.57;;;2.10;99.90;;;;;;4915870;29;20076;-66
2023/12/01 00:11:49;;;;;;;21.55;13.63;;;2.10;99.90;;;;;;4914738;29;20087;-67
2023/12/01 00:14:15;;;;;;;22.25;14.20;;;2.10;99.90;;;;;;4915774;29;20071;-67
2023/12/01 00:16:40;;;;;;;22.33;14.48;;;2.10;99.90;;;;;;4914277;29;20092;-67
2023/12/01 00:19:06;;;;;;;23.48;14.60;;;2.20;99.90;;;;;;4913019;29;20107;-66
2023/12/01 00:21:31;;;;;;;23.67;15.32;;;2.20;99.90;;;;;;4914448;29;20088;-66
2023/12/01 00:23:57;;;;;;;20.60;15.05;;;2.30;99.90;;;;;;4915904;29;20040;-67
2023/12/01 00:26:22;;;;;;;22.20;14.48;;;2.40;99.90;;;;;;4914857;29;20028;-66
2023/12/01 00:28:48;;;;;;;20.55;13.60;;;2.40;99.90;;;;;;4915130;29;20466;-66
2023/12/01 00:31:14;;;;;;;21.85;14.43;;;2.40;99.90;;;;;;4914970;29;20106;-66
2023/12/01 00:33:40;;;;;;;19.77;13.75;;;2.30;99.90;;;;;;4914518;29;20043;-67
2023/12/01 00:36:06;;;;;;;24.52;14.85;;;2.30;99.90;;;;;;4914753;29;20036;-66
2023/12/01 00:38:32;;;;;;;22.23;13.98;;;2.30;99.90;;;;;;4913943;29;20461;-66
2023/12/01 00:40:57;;;;;;;20.58;14.35;;;2.30;99.90;;;;;;4915164;29;20043;-66
2023/12/01 00:43:24;;;;;;;22.50;14.55;;;2.30;99.90;;;;;;4915058;29;20112;-65
2023/12/01 00:45:49;;;;;;;21.65;14.18;;;2.30;99.90;;;;;;4914122;29;20098;-66
2023/12/01 00:48:15;;;;;;;23.75;15.60;;;2.20;99.90;;;;;;4914977;29;20032;-67
2023/12/01 00:50:40;;;;;;;21.83;14.73;;;2.20;99.90;;;;;;4914249;29;20477;-67
2023/12/01 00:53:06;;;;;;;22.60;14.52;;;2.30;99.90;;;;;;4915333;29;20048;-67
2023/12/01 00:55:31;;;;;;;22.42;13.93;;;2.30;99.90;;;;;;4913834;29;20043;-66
2023/12/01 00:57:57;;;;;;;22.17;14.10;;;2.30;99.90;;;;;;4915225;29;20032;-67
2023/12/01 01:00:23;;;;;;;23.00;14.82;;;2.20;99.90;;;;;;4915144;29;20475;-67
2023/12/01 01:02:50;;;;;;;29.10;15.93;;;2.20;99.90;;;;;;4913801;29;20104;-67
2023/12/01 01:05:17;;;;;;;23.05;15.10;;;2.10;99.90;;;;;;4914924;29;20478;-67
2023/12/01 01:07:42;;;;;;;24.58;15.48;;;2.10;99.90;;;;;;4913629;29;20079;-67
2023/12/01 01:10:08;;;;;;;22.50;14.70;;;2.10;99.90;;;;;;4914668;29;20056;-66
2023/12/01 01:12:34;;;;;;;23.15;14.93;;;2.00;99.90;;;;;;4913715;29;20024;-65
2023/12/01 01:15:03;;;;;;;23.65;15.93;;;2.00;99.90;;;;;;4914804;29;20064;-67
2023/12/01 01:17:32;;;;;;;25.50;15.88;;;1.90;99.90;;;;;;4913464;29;20032;-67
2023/12/01 01:19:59;;;;;;;26.30;16.43;;;1.90;99.90;;;;;;4914520;29;20123;-66
2023/12/01 01:22:25;;;;;;;27.42;17.50;;;2.00;99.90;;;;;;4898675;29;20260;-67
2023/12/01 01:24:52;;;;;;;28.20;16.85;;;1.90;99.90;;;;;;4914215;29;20028;-65
2023/12/01 01:27:18;;;;;;;26.67;18.10;;;1.80;99.90;;;;;;4914050;29;20076;-66
2023/12/01 01:29:44;;;;;;;30.58;18.25;;;1.80;99.90;;;;;;4914011;29;20036;-67
2023/12/01 01:32:11;;;;;;;28.20;16.95;;;1.70;99.90;;;;;;4914094;29;20032;-66
2023/12/01 01:34:37;;;;;;;28.83;18.70;;;1.70;99.90;;;;;;4914088;29;20087;-67
2023/12/01 01:37:03;;;;;;;31.13;18.60;;;1.60;99.90;;;;;;4913640;29;20044;-66
2023/12/01 01:39:28;;;;;;;32.00;19.45;;;1.60;99.90;;;;;;4913812;29;20533;-66
2023/12/01 01:41:55;;;;;;;35.25;18.38;;;1.60;99.90;;;;;;4913923;29;20024;-66
2023/12/01 01:44:21;;;;;;;34.42;18.80;;;1.60;99.90;;;;;;4914423;29;20036;-66
2023/12/01 01:46:47;;;;;;;31.65;18.80;;;1.60;99.90;;;;;;4913137;29;20035;-67
2023/12/01 01:49:14;;;;;;;26.77;17.50;;;1.60;99.90;;;;;;4914172;29;20032;-66
2023/12/01 01:51:40;;;;;;;34.47;19.55;;;1.70;99.90;;;;;;4913326;29;20028;-66
2023/12/01 01:54:06;;;;;;;34.45;18.80;;;1.60;99.90;;;;;;4914219;29;20036;-66
2023/12/01 01:56:33;;;;;;;32.53;18.88;;;1.60;99.90;;;;;;4912962;29;20046;-66
2023/12/01 01:59:00;;;;;;;32.70;19.38;;;1.50;99.90;;;;;;4914019;29;20028;-66
2023/12/01 02:01:26;;;;;;;35.42;19.05;;;1.40;99.90;;;;;;4913709;29;20470;-66
2023/12/01 02:03:52;;;;;;;31.52;20.27;;;1.30;99.90;;;;;;4913779;29;20040;-66
2023/12/01 02:06:19;;;;;;;34.90;20.55;;;1.30;99.90;;;;;;4913665;29;20028;-66
2023/12/01 02:08:45;;;;;;;30.73;19.15;;;1.20;99.90;;;;;;4913387;29;20035;-66
2023/12/01 02:11:13;;;;;;;34.45;19.83;;;1.20;99.90;;;;;;4920458;29;20148;-66
2023/12/01 02:13:39;;;;;;;31.85;18.25;;;1.20;99.90;;;;;;4919175;29;20044;-66
2023/12/01 02:16:08;;;;;;;31.48;21.15;;;1.20;99.90;;;;;;4913231;29;20055;-67
2023/12/01 02:18:34;;;;;;;32.80;20.67;;;1.20;99.90;;;;;;4912554;29;20545;-67
2023/12/01 02:21:00;;;;;;;35.95;19.90;;;1.20;99.90;;;;;;4913873;29;20024;-67
2023/12/01 02:23:26;;;;;;;38.30;21.25;;;1.20;99.90;;;;;;4913934;29;20036;-67
2023/12/01 02:25:52;;;;;;;33.08;20.30;;;1.10;99.90;;;;;;4913625;29;20032;-67
2023/12/01 02:28:18;;;;;;;33.13;21.15;;;1.10;99.90;;;;;;4914255;29;20028;-67
2023/12/01 02:30:50;;;;;;;31.55;19.27;;;1.10;99.90;;;;;;4913002;29;20027;-67
2023/12/01 02:33:16;;;;;;;36.03;21.30;;;1.10;99.90;;;;;;4913891;29;20042;-68
2023/12/01 02:35:46;;;;;;;34.92;21.55;;;1.00;99.90;;;;;;4914158;29;20525;-66
2023/12/01 02:38:12;;;;;;;33.30;21.70;;;1.00;99.90;;;;;;4917376;29;20060;-66
2023/12/01 02:40:42;;;;;;;32.25;21.02;;;0.90;99.90;;;;;;4916476;29;20067;-66
2023/12/01 02:43:10;;;;;;;39.63;22.25;;;0.90;99.90;;;;;;4917751;29;20478;-66
2023/12/01 02:45:36;;;;;;;39.15;21.45;;;0.90;99.90;;;;;;4916293;29;20363;-66
2023/12/01 02:48:02;;;;;;;36.40;21.88;;;0.80;99.90;;;;;;4917092;29;20110;-67
2023/12/01 02:50:27;;;;;;;36.85;21.17;;;0.80;99.90;;;;;;4917169;29;20025;-67
2023/12/01 02:52:53;;;;;;;34.08;20.73;;;0.80;99.90;;;;;;4917285;29;20032;-66
2023/12/01 02:55:18;;;;;;;36.83;22.23;;;0.80;99.90;;;;;;4917575;29;20394;-67
2023/12/01 02:57:44;;;;;;;33.95;21.40;;;0.80;99.90;;;;;;4915976;29;20028;-66
2023/12/01 03:00:13;;;;;;;32.15;21.10;;;0.80;99.90;;;;;;4916883;29;20417;-66
2023/12/01 03:02:43;;;;;;;35.10;22.35;;;0.80;99.90;;;;;;4899331;29;20430;-66
2023/12/01 03:05:09;;;;;;;;;;;0.70;99.90;;;;;;4917353;29;20036;-67
2023/12/01 03:07:38;;;;;;;34.15;21.55;;;0.70;99.90;;;;;;4916057;29;19911;-67
2023/12/01 03:10:07;;;;;;;34.28;22.30;;;0.60;99.90;;;;;;4931439;29;20019;-66
2023/12/01 03:12:33;;;;;;;36.45;22.05;;;0.50;99.90;;;;;;4916006;29;20541;-67
2023/12/01 03:14:59;;;;;;;38.97;23.48;;;0.50;99.90;;;;;;4917173;29;20055;-66
2023/12/01 03:17:25;;;;;;;38.85;23.25;;;0.50;99.90;;;;;;4916235;29;20435;-66
2023/12/01 03:19:51;;;;;;;36.97;23.30;;;0.50;99.90;;;;;;4915137;29;20059;-66
2023/12/01 03:22:17;;;;;;;40.88;24.63;;;0.40;99.90;;;;;;4916308;29;20034;-66
2023/12/01 03:24:45;;;;;;;41.85;25.20;;;0.40;99.90;;;;;;4916376;29;20031;-67
2023/12/01 03:27:11;;;;;;;37.20;24.17;;;0.40;99.90;;;;;;4916690;29;20031;-67
2023/12/01 03:29:38;;;;;;;41.80;23.70;;;0.40;99.90;;;;;;4915965;29;20323;-66
2023/12/01 03:32:04;;;;;;;45.08;24.58;;;0.40;99.90;;;;;;4899468;29;20039;-66
2023/12/01 03:34:30;;;;;;;41.45;23.90;;;0.40;99.90;;;;;;4915739;29;20069;-66
2023/12/01 03:36:56;;;;;;;43.90;24.65;;;0.40;99.90;;;;;;4915945;29;20044;-68
2023/12/01 03:39:22;;;;;;;37.65;24.10;;;0.40;99.90;;;;;;4916349;29;20062;-67
2023/12/01 03:41:50;;;;;;;39.90;24.60;;;0.40;99.90;;;;;;4915329;29;20036;-67
2023/12/01 03:44:16;;;;;;;37.78;23.92;;;0.50;99.90;;;;;;4916360;29;20377;-67
2023/12/01 03:46:42;;;;;;;39.08;24.92;;;0.50;99.90;;;;;;4897752;29;20034;-67
2023/12/01 03:49:07;;;;;;;41.75;26.05;;;0.50;99.90;;;;;;4916575;29;20056;-67
2023/12/01 03:51:35;;;;;;;43.30;25.77;;;0.40;99.90;;;;;;4914964;29;20107;-67
2023/12/01 03:54:00;;;;;;;41.63;25.13;;;0.40;99.90;;;;;;4898979;29;20047;-67
2023/12/01 03:56:26;;;;;;;44.97;26.27;;;0.50;99.90;;;;;;4915383;29;20020;-67
2023/12/01 03:58:57;;;;;;;47.22;27.77;;;0.40;99.90;;;;;;4915989;29;20025;-67
2023/12/01 04:01:31;;;;;;;51.83;27.48;;;0.30;99.90;;;;;;4915829;29;20028;-67
2023/12/01 04:03:57;;;;;;;44.10;26.65;;;0.30;99.90;;;;;;4916482;29;20043;-67
2023/12/01 04:06:22;;;;;;;45.58;27.58;;;0.10;99.90;;;;;;4915338;29;20036;-67
2023/12/01 04:08:52;;;;;;;41.03;25.58;;;0.30;99.90;;;;;;4925768;29;20055;-67
2023/12/01 04:11:19;;;;;;;45.65;26.10;;;0.30;99.90;;;;;;4915859;29;20106;-67
2023/12/01 04:13:44;;;;;;;45.15;27.23;;;0.30;99.90;;;;;;4915116;29;20298;-67
2023/12/01 04:16:10;;;;;;;45.55;27.15;;;0.20;99.90;;;;;;4915451;29;20035;-67
2023/12/01 04:18:38;;;;;;;45.53;27.42;;;;;;;;;;4914968;29;20047;-67
2023/12/01 04:21:08;;;;;;;49.35;27.73;;;;;;;;;;4915443;29;20024;-67
2023/12/01 04:23:35;;;;;;;46.63;27.17;;;;;;;;;;4915016;29;20040;-67
2023/12/01 04:26:02;;;;;;;50.15;27.92;;;;;;;;;;4915177;29;20032;-67
2023/12/01 04:28:29;;;;;;;47.10;26.92;;;;;;;;;;4915417;29;20090;-67
2023/12/01 04:30:56;;;;;;;47.22;26.30;;;;;;;;;;4915257;29;20038;-67
2023/12/01 04:33:23;;;;;;;52.33;28.38;;;;;;;;;;4915556;29;20154;-67
2023/12/01 04:35:50;;;;;;;51.00;29.90;;;;;;;;;;4914298;29;20084;-66
2023/12/01 04:38:17;;;;;;;51.67;30.23;;;;;;;;;;4915013;29;20052;-67
2023/12/01 04:40:44;;;;;;;48.58;28.92;;;;;;;;;;4914293;29;20024;-67
2023/12/01 04:43:11;;;;;;;47.00;27.75;;;;;;;;;;4915618;29;20035;-66
2023/12/01 04:45:38;;;;;;;51.63;29.23;;;;;;;;;;4914091;29;20028;-67
2023/12/01 04:48:07;;;;;;;46.28;27.70;;;;;;;;;;4915169;29;20084;-67
2023/12/01 04:50:35;;;;;;;47.60;30.17;;;;;;;;;;4913999;29;20401;-67
2023/12/01 04:53:03;;;;;;;49.67;29.67;;;;;;;;;;4915211;29;20084;-67
2023/12/01 04:55:30;;;;;;;53.03;31.65;;;;;;;;;;4914899;29;20080;-67
2023/12/01 04:57:58;;;;;;;49.67;29.60;;;;;;;;;;4914578;29;20024;-67
2023/12/01 05:00:25;;;;;;;48.40;29.60;;;0.00;99.90;;;;;;4915049;29;20024;-66
2023/12/01 05:03:04;;;;;;;52.33;30.35;;;0.10;99.90;;;;;;4914357;29;20029;-67
2023/12/01 05:05:32;;;;;;;51.65;29.65;;;0.00;99.90;;;;;;4913630;29;20474;-67
2023/12/01 05:07:59;;;;;;;46.90;28.70;;;0.00;99.90;;;;;;4914845;29;20028;-67
2023/12/01 05:10:27;;;;;;;53.05;31.15;;;0.00;99.90;;;;;;4899576;29;20039;-67
2023/12/01 05:12:56;;;;;;;53.47;30.50;;;0.00;99.90;;;;;;4914880;29;20036;-67
2023/12/01 05:15:26;;;;;;;54.45;31.92;;;0.00;99.90;;;;;;4914955;29;20024;-67
2023/12/01 05:17:55;;;;;;;51.13;29.60;;;-0.10;99.90;;;;;;4913460;29;20470;-66
2023/12/01 05:20:23;;;;;;;52.72;31.15;;;-0.10;99.90;;;;;;4914929;29;20024;-66
2023/12/01 05:22:57;;;;;;;50.20;30.05;;;-0.10;99.90;;;;;;4913485;29;20036;-66
2023/12/01 05:25:25;;;;;;;53.65;30.35;;;-0.10;99.90;;;;;;4914676;29;20036;-67
2023/12/01 05:27:54;;;;;;;56.53;32.83;;;-0.10;99.90;;;;;;4913694;29;20457;-67
2023/12/01 05:30:22;;;;;;;56.67;32.10;;;-0.10;99.90;;;;;;4914737;29;20029;-67
2023/12/01 05:32:49;;;;;;;52.45;30.95;;;-0.10;99.90;;;;;;4913947;29;20119;-67
2023/12/01 05:35:16;;;;;;;50.78;30.23;;;-0.10;99.90;;;;;;4914236;29;20032;-67
2023/12/01 05:37:47;;;;;;;52.28;30.35;;;-0.10;99.90;;;;;;4912860;29;20064;-67
2023/12/01 05:40:35;;;;;;;51.58;31.27;;;-0.10;99.90;;;;;;4914854;29;20036;-67
2023/12/01 05:43:02;;;;;;;53.50;31.70;;;-0.10;99.90;;;;;;4918705;29;20385;-67
2023/12/01 05:45:29;;;;;;;47.90;29.52;;;-0.10;99.90;;;;;;4926966;29;20092;-67
2023/12/01 05:47:56;;;;;;;47.90;29.55;;;-0.10;99.90;;;;;;4926820;29;20024;-67
2023/12/01 05:50:25;;;;;;;43.63;27.95;;;0.00;99.90;;;;;;4922355;29;20052;-67
2023/12/01 05:52:53;;;;;;;42.27;27.53;;;0.00;99.90;;;;;;4914158;29;20103;-67
2023/12/01 05:55:21;;;;;;;49.90;28.77;;;0.00;99.90;;;;;;4914267;29;20257;-67
2023/12/01 05:57:49;;;;;;;45.50;27.48;;;0.00;99.90;;;;;;4912783;29;20098;-67
2023/12/01 06:00:23;;;;;;;44.47;28.88;;;0.00;99.90;;;;;;4913354;29;20024;-66
2023/12/01 06:02:50;;;;;;;46.28;27.38;;;0.00;99.90;;;;;;4914170;29;20103;-67
2023/12/01 06:05:18;;;;;;;44.75;26.50;;;0.00;99.90;;;;;;4913523;29;20355;-67
2023/12/01 06:07:49;;;;;;;41.80;25.77;;;0.00;99.90;;;;;;4912442;29;20719;-67
2023/12/01 06:10:15;;;;;;;41.15;26.40;;;-0.10;99.90;;;;;;4914041;29;20031;-68
2023/12/01 06:12:41;;;;;;;42.08;27.00;;;0.00;99.90;;;;;;4916054;29;20034;-69
2023/12/01 06:15:09;;;;;;;40.42;26.83;;;0.00;99.90;;;;;;4923846;29;20389;-72
2023/12/01 06:17:35;;;;;;;42.53;26.30;;;0.00;99.90;;;;;;4902160;29;20029;-72
2023/12/01 06:20:01;;;;;;;44.67;26.75;;;0.00;99.90;;;;;;4913502;29;20119;-68
2023/12/01 06:22:26;;;;;;;45.55;27.73;;;0.00;99.90;;;;;;4913162;29;20517;-68
2023/12/01 06:24:53;;;;;;;45.38;27.15;;;0.00;99.90;;;;;;4913871;29;20091;-69
2023/12/01 06:27:18;;;;;;;43.42;26.70;;;0.00;99.90;;;;;;4896425;29;20032;-69
2023/12/01 06:29:44;;;;;;;41.40;27.10;;;0.00;99.90;;;;;;4913226;29;20885;-69
2023/12/01 06:32:10;;;;;;;42.28;28.45;;;0.00;99.90;;;;;;4913188;29;20024;-70
2023/12/01 06:34:36;;;;;;;44.83;29.20;;;0.00;99.90;;;;;;4913203;29;20051;-69
2023/12/01 06:37:01;;;;;;;44.22;26.73;;;0.00;99.90;;;;;;4913472;29;20126;-69
2023/12/01 06:39:27;;;;;;;42.42;27.02;;;0.00;99.90;;;;;;4922841;29;20036;-68
2023/12/01 06:41:53;;;;;;;39.38;25.98;;;0.00;99.90;;;;;;4925204;29;20050;-69
2023/12/01 06:44:19;;;;;;;38.05;26.50;;;0.00;99.90;;;;;;4913204;29;20036;-69
2023/12/01 06:46:45;;;;;;;39.72;25.52;;;0.10;99.90;;;;;;4912396;29;20020;-69
2023/12/01 06:49:11;;;;;;;41.72;25.65;;;0.00;99.90;;;;;;4912568;29;20032;-69
2023/12/01 06:51:37;;;;;;;43.78;27.80;;;0.00;99.90;;;;;;4912060;29;20458;-68
2023/12/01 06:54:03;;;;;;;39.80;24.95;;;0.00;99.90;;;;;;4913271;29;20121;-67
2023/12/01 06:56:28;;;;;;;41.17;26.88;;;0.00;99.90;;;;;;4912306;29;20101;-67
2023/12/01 06:58:55;;;;;;;41.13;26.33;;;0.00;99.90;;;;;;4913487;29;20027;-68
2023/12/01 07:01:21;;;;;;;42.67;25.67;;;0.00;99.90;;;;;;4912917;29;20032;-69
2023/12/01 07:03:47;;;;;;;43.80;26.02;;;0.00;99.90;;;;;;4895226;29;20040;-68
2023/12/01 07:06:13;;;;;;;36.60;23.88;;;0.00;99.90;;;;;;4912877;29;20028;-66
2023/12/01 07:08:40;;;;;;;35.75;23.83;;;0.00;99.90;;;;;;4912565;29;20427;-69
2023/12/01 07:11:06;;;;;;;37.50;24.58;;;0.00;99.90;;;;;;4912689;29;20036;-68
2023/12/01 07:13:32;;;;;;;39.28;25.33;;;0.00;99.90;;;;;;4911060;29;20143;-68
2023/12/01 07:15:58;;;;;;;37.90;24.92;;;0.00;99.90;;;;;;4913278;29;20061;-68
2023/12/01 07:18:24;;;;;;;39.97;24.58;;;0.00;99.90;;;;;;4925466;29;20083;-68
2023/12/01 07:20:50;;;;;;;37.25;24.88;;;0.00;99.90;;;;;;4911840;29;20020;-68
2023/12/01 07:23:19;;;;;;;39.15;26.23;;;0.00;99.90;;;;;;4916573;29;20367;-67
2023/12/01 07:25:47;;;;;;;37.88;25.17;;;0.00;99.90;;;;;;4915386;29;20749;-68
2023/12/01 07:28:13;;;;;;;40.05;26.23;;;0.00;99.90;;;;;;4916009;29;20478;-68
2023/12/01 07:30:40;;;;;;;40.33;25.83;;;0.00;99.90;;;;;;4915585;29;20039;-68
2023/12/01 07:33:07;;;;;;;42.67;26.17;;;0.00;99.90;;;;;;4916139;29;20027;-68
2023/12/01 07:35:34;;;;;;;42.17;26.42;;;0.00;99.90;;;;;;4927744;29;20046;-70
2023/12/01 07:38:00;;;;;;;46.70;27.58;;;0.00;99.90;;;;;;4918498;29;20123;-70
2023/12/01 07:40:31;;;;;;;42.35;26.65;;;0.00;99.90;;;;;;4916880;29;20024;-65
2023/12/01 07:42:57;;;;;;;44.80;26.45;;;0.00;99.90;;;;;;4924328;29;20039;-67
2023/12/01 07:45:23;;;;;;;43.63;27.08;;;0.00;99.90;;;;;;4915972;29;20028;-69
2023/12/01 07:47:52;;;;;;;43.97;26.05;;;0.00;99.90;;;;;;4923708;29;20107;-67
2023/12/01 07:50:18;;;;;;;41.88;26.75;;;0.00;99.90;;;;;;4916780;29;20521;-67
2023/12/01 07:52:45;;;;;;;43.45;27.95;;;0.00;99.90;;;;;;4914059;29;20501;-67
2023/12/01 07:55:11;;;;;;;42.80;27.30;;;0.00;99.90;;;;;;4915798;29;20036;-66
2023/12/01 07:57:38;;;;;;;43.03;26.70;;;0.00;99.90;;;;;;4914716;29;20028;-66
2023/12/01 08:00:05;;;;;;;43.30;26.85;;;0.00;99.90;;;;;;4916413;29;20382;-66
2023/12/01 08:02:31;;;;;;;45.28;28.40;;;0.00;99.90;;;;;;4915017;29;20047;-66
2023/12/01 08:04:57;;;;;;;42.72;26.80;;;0.00;99.90;;;;;;4916157;29;20028;-66
2023/12/01 08:07:23;;;;;;;45.95;28.17;;;0.00;99.90;;;;;;4915618;29;20028;-66
2023/12/01 08:09:48;;;;;;;49.30;28.90;;;0.00;99.90;;;;;;4915411;29;20120;-66
2023/12/01 08:12:16;;;;;;;46.42;26.95;;;0.00;99.90;;;;;;4915517;29;20039;-66
2023/12/01 08:14:41;;;;;;;45.38;28.50;;;0.00;99.90;;;;;;4915008;29;20066;-66
2023/12/01 08:17:07;;;;;;;45.25;27.30;;;0.00;99.90;;;;;;4912575;29;20043;-66
2023/12/01 08:19:33;;;;;;;45.78;27.58;;;0.00;99.90;;;;;;4914688;29;20081;-66
2023/12/01 08:21:59;;;;;;;43.88;27.55;;;0.00;99.90;;;;;;4915261;29;20036;-66
2023/12/01 08:24:25;;;;;;;42.70;27.70;;;0.00;99.90;;;;;;4915512;29;20469;-65
2023/12/01 08:26:51;;;;;;;49.60;28.13;;;0.10;99.90;;;;;;4914760;29;20036;-66
2023/12/01 08:29:17;;;;;;;45.28;27.15;;;0.10;99.90;;;;;;4915704;29;20525;-66
2023/12/01 08:31:45;;;;;;;46.33;27.88;;;0.10;99.90;;;;;;4914678;29;20529;-66
2023/12/01 08:34:10;;;;;;;47.67;28.63;;;0.10;99.90;;;;;;4913983;29;20036;-66
2023/12/01 08:36:36;;;;;;;50.15;28.65;;;0.10;99.90;;;;;;4914440;29;20039;-66
2023/12/01 08:39:04;;;;;;;45.13;27.10;;;0.20;99.90;;;;;;4915554;29;20032;-66
2023/12/01 08:41:29;;;;;;;47.63;28.33;;;0.10;99.90;;;;;;4914112;29;20024;-66
2023/12/01 08:43:55;;;;;;;47.72;29.20;;;0.20;99.90;;;;;;4915106;29;20095;-67
2023/12/01 08:46:21;;;;;;;48.83;28.50;;;0.20;99.90;;;;;;4914371;29;20074;-66
2023/12/01 08:48:46;;;;;;;49.45;28.23;;;0.20;99.90;;;;;;4914494;29;20104;-66
2023/12/01 08:51:12;;;;;;;50.45;29.27;;;0.20;99.90;;;;;;4914885;29;20103;-66
2023/12/01 08:53:38;;;;;;;45.40;27.77;;;0.20;99.90;;;;;;4914266;29;20104;-67
2023/12/01 08:56:04;;;;;;;48.70;28.55;;;0.20;99.90;;;;;;4914544;29;20028;-66
2023/12/01 08:58:29;;;;;;;47.60;29.15;;;0.30;99.90;;;;;;4914639;29;20482;-66
2023/12/01 09:00:55;;;;;;;46.42;27.70;;;0.40;99.90;;;;;;4914744;29;20028;-66
2023/12/01 09:03:20;;;;;;;44.88;28.70;;;0.40;99.90;;;;;;4914622;29;20051;-67
2023/12/01 09:05:46;;;;;;;43.25;27.92;;;0.50;99.90;;;;;;4913899;29;20032;-67
2023/12/01 09:08:12;;;;;;;45.30;27.33;;;0.50;99.90;;;;;;4914932;29;20474;-66
2023/12/01 09:10:38;;;;;;;44.35;26.70;;;0.50;99.90;;;;;;4914040;29;20125;-66
2023/12/01 09:13:04;;;;;;;42.78;26.80;;;0.50;99.90;;;;;;4914353;29;20028;-66
2023/12/01 09:15:29;;;;;;;42.42;26.73;;;0.50;99.90;;;;;;4913950;29;20356;-65
2023/12/01 09:17:55;;;;;;;43.55;27.02;;;0.60;99.90;;;;;;4920024;29;20524;-66
2023/12/01 09:20:20;;;;;;;43.17;26.15;;;0.60;99.90;;;;;;4914232;29;20036;-66
2023/12/01 09:22:47;;;;;;;37.97;25.27;;;0.70;99.90;;;;;;4913465;29;20047;-66
2023/12/01 09:25:13;;;;;;;40.78;26.73;;;0.70;99.90;;;;;;4914844;29;20107;-66
2023/12/01 09:27:41;;;;;;;41.25;26.63;;;0.80;99.90;;;;;;4912013;29;20470;-66
2023/12/01 09:30:10;;;;;;;36.42;24.95;;;0.80;99.90;;;;;;4926831;29;20054;-66
2023/12/01 09:32:36;;;;;;;38.20;25.65;;;0.90;99.90;;;;;;4913475;29;20058;-66
2023/12/01 09:35:02;;;;;;;35.88;24.90;;;0.90;99.90;;;;;;4914260;29;20486;-66
2023/12/01 09:37:28;;;;;;;35.40;24.52;;;0.90;99.90;;;;;;4912804;29;20541;-65
2023/12/01 09:39:53;;;;;;;34.10;22.17;;;0.90;99.90;;;;;;4914028;29;20103;-66
2023/12/01 09:42:22;;;;;;;33.67;23.75;;;0.90;99.90;;;;;;4913350;29;20042;-67
2023/12/01 09:44:53;;;;;;;32.97;22.90;;;0.90;99.90;;;;;;4913705;29;20140;-65
2023/12/01 09:47:20;;;;;;;36.78;24.05;;;0.90;99.90;;;;;;4897711;29;20083;-65
2023/12/01 09:49:48;;;;;;;38.65;24.45;;;0.80;99.90;;;;;;4908611;29;20165;-65
2023/12/01 09:52:13;;;;;;;35.30;24.20;;;0.80;99.90;;;;;;4927703;29;20040;-65
2023/12/01 09:54:39;;;;;;;36.60;23.95;;;0.80;99.90;;;;;;4914630;29;20466;-68
2023/12/01 09:57:06;;;;;;;36.83;24.25;;;0.80;99.90;;;;;;4913806;29;20536;-65
2023/12/01 09:59:36;;;;;;;33.95;22.42;;;0.80;99.90;;;;;;4912994;29;20036;-67
2023/12/01 10:02:03;;;;;;;34.13;22.83;;;0.80;99.90;;;;;;4913455;29;20028;-68
2023/12/01 10:04:32;;;;;;;32.03;23.35;;;0.90;99.90;;;;;;4913675;29;20024;-65
2023/12/01 10:06:57;;;;;;;33.63;22.92;;;0.90;99.90;;;;;;4914134;29;20477;-66
2023/12/01 10:09:28;;;;;;;33.40;22.63;;;0.90;99.90;;;;;;4922052;29;20028;-65
2023/12/01 10:12:12;;;;;;;35.58;23.67;;;1.00;99.90;;;;;;4920520;29;20032;-65
2023/12/01 10:14:38;;;;;;;31.10;21.80;;;1.00;99.90;;;;;;4899403;29;20024;-65
2023/12/01 10:17:07;;;;;;;32.90;22.25;;;1.00;99.90;;;;;;4911577;29;20032;-65
2023/12/01 10:19:34;;;;;;;35.65;23.25;;;1.00;99.90;;;;;;4912975;29;20036;-65
2023/12/01 10:22:00;;;;;;;32.97;23.55;;;1.00;99.90;;;;;;4913135;29;20056;-65
2023/12/01 10:24:26;;;;;;;34.00;21.70;;;1.00;99.90;;;;;;4913706;29;20502;-64
2023/12/01 10:26:55;;;;;;;34.03;22.90;;;1.00;99.90;;;;;;4912824;29;20032;-65
2023/12/01 10:29:31;;;;;;;33.13;22.58;;;1.00;99.90;;;;;;4913648;29;20171;-65
2023/12/01 10:32:11;;;;;;;36.60;24.27;;;1.00;99.90;;;;;;4913027;29;20115;-65
2023/12/01 10:34:37;;;;;;;37.33;23.50;;;0.90;99.90;;;;;;4899267;29;20028;-65
2023/12/01 10:37:03;;;;;;;35.13;23.95;;;0.90;99.90;;;;;;4912969;29;20047;-65
2023/12/01 10:39:29;;;;;;;37.33;24.35;;;0.90;99.90;;;;;;4920809;29;20147;-65
2023/12/01 10:41:56;;;;;;;34.38;23.65;;;1.00;99.90;;;;;;4912488;29;20114;-65
2023/12/01 10:44:26;;;;;;;37.78;25.27;;;1.00;99.90;;;;;;4923238;29;20720;-65
2023/12/01 10:47:13;;;;;;;38.65;25.85;;;0.90;99.90;;;;;;4912752;29;20025;-65
2023/12/01 10:49:40;;;;;;;42.60;25.08;;;0.90;99.90;;;;;;4818075;29;20568;-64
2023/12/01 10:52:09;;;;;;;38.78;25.40;;;1.00;99.90;;;;;;4816658;29;20073;-65
2023/12/01 10:54:36;;;;;;;35.70;24.27;;;1.00;99.90;;;;;;4817910;29;20582;-65
2023/12/01 10:57:15;;;;;;;39.92;25.13;;;1.00;99.90;;;;;;4819106;29;20077;-66
2023/12/01 10:59:47;;;;;;;40.17;25.52;;;0.90;99.90;;;;;;4821358;29;20069;-64
2023/12/01 11:02:14;;;;;;;39.38;25.60;;;0.90;99.90;;;;;;4826562;29;20432;-65
2023/12/01 11:04:44;;;;;;;40.72;27.17;;;0.90;99.90;;;;;;4821354;29;20033;-64
2023/12/01 11:07:21;;;;;;;40.13;24.63;;;0.90;99.90;;;;;;4821316;29;20185;-64
2023/12/01 11:10:00;;;;;;;38.75;26.88;;;1.00;99.90;;;;;;4821584;29;20183;-65
2023/12/01 11:12:38;;;;;;;39.75;25.60;;;0.90;99.90;;;;;;4820996;29;20451;-64
2023/12/01 11:15:31;;;;;;;40.00;25.55;;;0.90;99.90;;;;;;4821683;29;20121;-65
2023/12/01 11:17:57;;;;;;;38.28;25.23;;;1.00;99.90;;;;;;4819649;29;20049;-65
2023/12/01 11:20:36;;;;;;;39.38;24.60;;;1.00;99.90;;;;;;4821868;29;20042;-65
2023/12/01 11:23:08;;;;;;;40.80;26.58;;;0.90;99.90;;;;;;4821371;29;20034;-65
2023/12/01 11:25:46;;;;;;;46.10;27.20;;;0.90;99.90;;;;;;4831060;29;20531;-65
2023/12/01 11:28:29;;;;;;;44.85;27.88;;;0.80;99.90;;;;;;4915273;29;20064;-66
2023/12/01 11:31:08;;;;;;;42.17;26.80;;;0.80;99.90;;;;;;4915839;29;20067;-64
2023/12/01 11:33:57;;;;;;;41.78;26.75;;;0.90;99.90;;;;;;4913201;29;20044;-66
2023/12/01 11:36:25;;;;;;;45.10;26.83;;;1.00;99.90;;;;;;4900840;29;20037;-66
2023/12/01 11:39:23;;;;;;;43.95;28.13;;;1.00;99.90;;;;;;4912137;29;20107;-65
2023/12/01 11:41:58;;;;;;;44.13;26.95;;;1.00;99.90;;;;;;4915563;29;20051;-65
2023/12/01 11:44:40;;;;;;;44.55;27.35;;;1.00;99.90;;;;;;4916395;29;20160;-64
2023/12/01 11:47:09;;;;;;;42.58;26.75;;;1.00;99.90;;;;;;4915578;29;20359;-65
2023/12/01 11:49:43;;;;;;;49.63;29.90;;;1.00;99.90;;;;;;4915630;29;20562;-68
2023/12/01 11:52:19;;;;;;;45.08;28.55;;;1.10;99.90;;;;;;4915017;29;20032;-65
2023/12/01 11:54:47;;;;;;;47.28;29.48;;;1.10;99.90;;;;;;4915764;29;20028;-65
2023/12/01 11:57:17;;;;;;;49.35;30.08;;;1.10;99.90;;;;;;4915478;29;20091;-66
2023/12/01 11:59:43;;;;;;;51.65;31.67;;;1.00;99.90;;;;;;4899033;29;20470;-66
2023/12/01 12:02:09;;;;;;;51.75;30.77;;;1.00;99.90;;;;;;4915399;29;20107;-66
2023/12/01 12:04:37;;;;;;;54.13;32.30;;;1.00;99.90;;;;;;4915906;29;20119;-69
2023/12/01 12:07:04;;;;;;;53.42;32.35;;;1.10;99.90;;;;;;4915392;29;20034;-66
2023/12/01 12:09:35;;;;;;;52.17;32.20;;;1.00;99.90;;;;;;4914950;29;20386;-66
2023/12/01 12:12:04;;;;;;;52.33;32.47;;;1.10;99.90;;;;;;4915862;29;20040;-65
2023/12/01 12:14:30;;;;;;;56.42;32.78;;;1.00;99.90;;;;;;4915224;29;20048;-65
2023/12/01 12:16:57;;;;;;;53.20;32.33;;;1.10;99.90;;;;;;4915040;29;20036;-65
2023/12/01 12:19:23;;;;;;;57.95;34.83;;;1.00;99.90;;;;;;4915561;29;20047;-66
2023/12/01 12:21:49;;;;;;;60.53;33.70;;;1.00;99.90;;;;;;4915110;29;20040;-66
2023/12/01 12:24:15;;;;;;;59.17;33.35;;;0.90;99.90;;;;;;4915645;29;20111;-63
2023/12/01 12:26:42;;;;;;;58.20;34.03;;;1.00;99.90;;;;;;4914645;29;20036;-65
2023/12/01 12:29:08;;;;;;;58.47;34.65;;;1.00;99.90;;;;;;4915819;29;20028;-66
2023/12/01 12:31:36;;;;;;;56.20;33.83;;;1.00;99.90;;;;;;4914793;29;20042;-65
2023/12/01 12:34:07;;;;;;;57.22;34.45;;;1.00;99.90;;;;;;4915962;29;20040;-66
2023/12/01 12:36:35;;;;;;;57.50;33.20;;;1.00;99.90;;;;;;4914438;29;20076;-65
2023/12/01 12:39:03;;;;;;;56.67;33.53;;;1.00;99.90;;;;;;4915461;29;20028;-65
2023/12/01 12:41:40;;;;;;;59.08;33.88;;;1.00;99.90;;;;;;4914233;29;20028;-65
2023/12/01 12:44:09;;;;;;;58.13;33.58;;;1.00;99.90;;;;;;4922063;29;20040;-65